createdAt,value
2023-03-15T00:00:08.670Z,77
2023-03-15T00:01:08.481Z,76
2023-03-15T00:02:09.055Z,77
2023-03-15T00:03:07.949Z,77
2023-03-15T00:04:08.468Z,76
2023-03-15T00:05:08.411Z,76
2023-03-15T00:06:08.449Z,77
2023-03-15T00:07:08.555Z,77
2023-03-15T00:08:10.922Z,77
2023-03-15T00:09:07.998Z,77
2023-03-15T00:10:08.260Z,77
2023-03-15T00:11:08.171Z,77
2023-03-15T00:12:08.424Z,77
2023-03-15T00:13:08.663Z,77
2023-03-15T00:14:08.029Z,77
2023-03-15T00:15:08.254Z,77
2023-03-15T00:16:08.381Z,77
2023-03-15T00:17:08.722Z,77
2023-03-15T00:18:07.922Z,77
2023-03-15T00:19:08.191Z,77
2023-03-15T00:21:08.485Z,77
2023-03-15T00:22:08.860Z,77
2023-03-15T00:23:08.202Z,77
2023-03-15T00:24:08.514Z,77
2023-03-15T00:25:08.633Z,77
2023-03-15T00:26:07.933Z,77
2023-03-15T00:27:08.347Z,77
2023-03-15T00:28:08.595Z,77
2023-03-15T00:29:08.858Z,76
2023-03-15T00:30:08.103Z,77
2023-03-15T00:31:08.612Z,77
2023-03-15T00:32:08.718Z,76
2023-03-15T00:34:08.211Z,76
2023-03-15T00:35:08.359Z,76
2023-03-15T00:36:08.870Z,76
2023-03-15T00:37:07.927Z,76
2023-03-15T00:38:08.255Z,76
2023-03-15T00:40:08.939Z,76
2023-03-15T00:42:08.789Z,76
2023-03-15T00:43:08.795Z,77
2023-03-15T00:44:08.357Z,77
2023-03-15T00:45:08.417Z,77
2023-03-15T00:46:09.273Z,77
2023-03-15T00:47:08.071Z,77
2023-03-15T00:48:08.257Z,77
2023-03-15T00:49:08.674Z,77
2023-03-15T00:50:07.960Z,77
2023-03-15T00:51:08.464Z,77
2023-03-15T00:52:09.132Z,77
2023-03-15T00:53:08.164Z,77
2023-03-15T00:54:08.443Z,77
2023-03-15T00:55:09.208Z,77
2023-03-15T00:56:08.190Z,77
2023-03-15T00:57:08.241Z,77
2023-03-15T00:58:09.302Z,77
2023-03-15T00:59:08.824Z,77
2023-03-15T01:00:07.804Z,77
2023-03-15T01:01:08.577Z,77
2023-03-15T01:02:09.042Z,77
2023-03-15T01:03:08.100Z,77
2023-03-15T01:05:08.303Z,77
2023-03-15T01:06:07.986Z,78
2023-03-15T01:07:08.281Z,78
2023-03-15T01:08:08.773Z,78
2023-03-15T01:09:07.686Z,78
2023-03-15T01:10:08.216Z,78
2023-03-15T01:11:08.574Z,78
2023-03-15T01:12:08.770Z,78
2023-03-15T01:13:08.189Z,78
2023-03-15T01:14:08.371Z,78
2023-03-15T01:15:08.646Z,78
2023-03-15T01:16:08.552Z,78
2023-03-15T01:17:08.466Z,78
2023-03-15T01:18:08.927Z,78
2023-03-15T01:19:07.883Z,78
2023-03-15T01:20:08.196Z,78
2023-03-15T01:21:08.398Z,78
2023-03-15T01:22:08.684Z,78
2023-03-15T01:23:08.080Z,78
2023-03-15T01:24:08.313Z,78
2023-03-15T01:25:08.676Z,78
2023-03-15T01:26:08.995Z,78
2023-03-15T01:29:08.732Z,78
2023-03-15T01:30:09.008Z,78
2023-03-15T01:31:08.264Z,78
2023-03-15T01:32:08.559Z,78
2023-03-15T01:33:08.329Z,78
2023-03-15T01:34:09.049Z,78
2023-03-15T01:35:08.113Z,78
2023-03-15T01:36:08.485Z,78
2023-03-15T01:37:08.613Z,78
2023-03-15T01:38:08.989Z,78
2023-03-15T01:39:07.921Z,78
2023-03-15T01:40:08.459Z,78
2023-03-15T01:41:08.208Z,78
2023-03-15T01:42:08.849Z,78
2023-03-15T01:43:08.162Z,79
2023-03-15T01:44:08.072Z,79
2023-03-15T01:45:08.410Z,79
2023-03-15T01:47:08.333Z,79
2023-03-15T01:49:08.435Z,79
2023-03-15T01:50:08.407Z,79
2023-03-15T01:51:08.076Z,79
2023-03-15T01:52:08.201Z,79
2023-03-15T01:53:08.457Z,79
2023-03-15T01:54:09.042Z,80
2023-03-15T01:55:08.240Z,80
2023-03-15T01:56:08.439Z,80
2023-03-15T01:57:08.758Z,80
2023-03-15T01:58:07.974Z,80
2023-03-15T01:59:08.064Z,80
2023-03-15T02:00:08.430Z,80
2023-03-15T02:01:08.370Z,80
2023-03-15T02:02:08.773Z,80
2023-03-15T02:03:08.520Z,80
2023-03-15T02:04:08.082Z,80
2023-03-15T02:06:08.322Z,80
2023-03-15T02:07:08.560Z,80
2023-03-15T02:08:08.927Z,80
2023-03-15T02:09:08.041Z,80
2023-03-15T02:10:08.213Z,80
2023-03-15T02:11:08.071Z,80
2023-03-15T02:12:08.576Z,81
2023-03-15T02:13:08.693Z,80
2023-03-15T02:14:08.977Z,81
2023-03-15T02:15:08.108Z,81
2023-03-15T02:16:08.673Z,81
2023-03-15T02:17:08.772Z,81
2023-03-15T02:18:08.007Z,81
2023-03-15T02:19:08.247Z,81
2023-03-15T02:20:08.611Z,81
2023-03-15T02:21:08.867Z,81
2023-03-15T02:22:07.909Z,81
2023-03-15T02:23:08.095Z,81
2023-03-15T02:24:08.401Z,82
2023-03-15T02:25:08.838Z,82
2023-03-15T02:26:08.127Z,82
2023-03-15T02:29:08.913Z,82
2023-03-15T02:30:08.104Z,82
2023-03-15T02:31:08.626Z,82
2023-03-15T02:32:09.021Z,82
2023-03-15T02:33:08.637Z,82
2023-03-15T02:34:07.979Z,82
2023-03-15T02:35:08.452Z,82
2023-03-15T02:36:08.904Z,82
2023-03-15T02:37:08.765Z,82
2023-03-15T02:38:08.011Z,82
2023-03-15T02:39:08.140Z,82
2023-03-15T02:40:08.629Z,82
2023-03-15T02:41:08.164Z,82
2023-03-15T02:42:08.616Z,82
2023-03-15T02:43:08.673Z,82
2023-03-15T02:44:08.107Z,82
2023-03-15T02:45:08.269Z,82
2023-03-15T02:46:08.393Z,82
2023-03-15T02:47:08.263Z,82
2023-03-15T02:48:08.418Z,82
2023-03-15T02:49:08.789Z,82
2023-03-15T02:50:08.009Z,82
2023-03-15T02:51:08.582Z,82
2023-03-15T02:53:08.586Z,82
2023-03-15T02:54:08.086Z,82
2023-03-15T02:55:08.004Z,82
2023-03-15T02:56:08.326Z,83
2023-03-15T02:57:08.559Z,83
2023-03-15T02:58:08.996Z,83
2023-03-15T02:59:08.051Z,83
2023-03-15T03:00:08.312Z,83
2023-03-15T03:01:08.644Z,83
2023-03-15T03:03:08.965Z,83
2023-03-15T03:04:08.194Z,83
2023-03-15T03:05:08.134Z,83
2023-03-15T03:06:08.899Z,83
2023-03-15T03:07:08.078Z,83
2023-03-15T03:08:08.265Z,83
2023-03-15T03:09:08.550Z,83
2023-03-15T03:10:08.526Z,83
2023-03-15T03:11:08.224Z,83
2023-03-15T03:12:08.329Z,83
2023-03-15T03:13:08.738Z,83
2023-03-15T03:14:08.889Z,83
2023-03-15T03:15:08.238Z,83
2023-03-15T03:16:08.718Z,83
2023-03-15T03:17:08.974Z,83
2023-03-15T03:18:08.206Z,83
2023-03-15T03:19:08.222Z,83
2023-03-15T03:20:08.578Z,83
2023-03-15T03:21:08.591Z,83
2023-03-15T03:22:08.271Z,83
2023-03-15T03:23:08.160Z,83
2023-03-15T03:24:08.219Z,83
2023-03-15T03:25:08.781Z,83
2023-03-15T03:26:08.177Z,83
2023-03-15T03:27:08.457Z,83
2023-03-15T03:28:08.668Z,83
2023-03-15T03:29:07.805Z,83
2023-03-15T03:30:08.056Z,83
2023-03-15T03:31:08.822Z,83
2023-03-15T03:32:08.644Z,83
2023-03-15T03:33:07.945Z,83
2023-03-15T03:34:08.271Z,83
2023-03-15T03:35:08.511Z,83
2023-03-15T03:36:08.081Z,83
2023-03-15T03:37:08.105Z,84
2023-03-15T03:38:08.291Z,84
2023-03-15T03:39:08.329Z,84
2023-03-15T03:40:08.551Z,84
2023-03-15T03:41:08.924Z,84
2023-03-15T03:42:07.972Z,84
2023-03-15T03:43:08.300Z,84
2023-03-15T03:44:08.729Z,84
2023-03-15T03:45:08.825Z,84
2023-03-15T03:46:09.019Z,84
2023-03-15T03:47:08.108Z,84
2023-03-15T03:48:08.125Z,84
2023-03-15T03:49:08.663Z,84
2023-03-15T03:50:08.810Z,84
2023-03-15T03:51:07.869Z,84
2023-03-15T03:52:08.248Z,84
2023-03-15T03:53:08.555Z,84
2023-03-15T03:54:08.681Z,84
2023-03-15T03:55:08.070Z,84
2023-03-15T03:56:08.574Z,84
2023-03-15T03:57:08.681Z,84
2023-03-15T03:58:07.984Z,84
2023-03-15T03:59:08.730Z,84
2023-03-15T04:00:08.599Z,84
2023-03-15T04:01:08.009Z,84
2023-03-15T04:02:08.164Z,84
2023-03-15T04:03:08.521Z,84
2023-03-15T04:04:08.999Z,84
2023-03-15T04:05:07.848Z,84
2023-03-15T04:06:08.514Z,85
2023-03-15T04:07:08.603Z,85
2023-03-15T04:08:08.732Z,85
2023-03-15T04:09:07.985Z,85
2023-03-15T04:10:08.179Z,85
2023-03-15T04:11:08.446Z,85
2023-03-15T04:12:08.361Z,85
2023-03-15T04:13:08.301Z,85
2023-03-15T04:14:08.496Z,85
2023-03-15T04:15:08.019Z,85
2023-03-15T04:17:08.345Z,85
2023-03-15T04:18:08.374Z,85
2023-03-15T04:19:08.526Z,85
2023-03-15T04:20:08.060Z,85
2023-03-15T04:21:08.048Z,85
2023-03-15T04:23:08.810Z,85
2023-03-15T04:24:08.209Z,85
2023-03-15T04:25:08.574Z,85
2023-03-15T04:28:08.629Z,85
2023-03-15T04:29:08.564Z,85
2023-03-15T04:30:08.798Z,85
2023-03-15T04:31:09.041Z,85
2023-03-15T04:32:08.057Z,85
2023-03-15T04:33:08.184Z,85
2023-03-15T04:34:08.569Z,85
2023-03-15T04:35:08.752Z,85
2023-03-15T04:36:09.254Z,85
2023-03-15T04:37:08.254Z,85
2023-03-15T04:38:08.400Z,85
2023-03-15T04:39:08.746Z,85
2023-03-15T04:40:08.161Z,85
2023-03-15T04:41:08.339Z,85
2023-03-15T04:42:08.566Z,85
2023-03-15T04:43:08.592Z,85
2023-03-15T04:44:07.871Z,85
2023-03-15T04:45:08.231Z,85
2023-03-15T04:46:08.613Z,85
2023-03-15T04:47:08.946Z,85
2023-03-15T04:48:08.024Z,85
2023-03-15T04:50:08.447Z,85
2023-03-15T04:51:08.449Z,85
2023-03-15T04:52:08.797Z,85
2023-03-15T04:54:08.607Z,85
2023-03-15T04:55:07.913Z,85
2023-03-15T04:56:10.955Z,85
2023-03-15T04:57:08.380Z,85
2023-03-15T04:58:08.802Z,86
2023-03-15T04:59:07.985Z,86
2023-03-15T05:00:08.415Z,86
2023-03-15T05:01:08.768Z,86
2023-03-15T05:02:10.440Z,86
2023-03-15T05:03:08.101Z,86
2023-03-15T05:04:08.000Z,86
2023-03-15T05:05:08.616Z,86
2023-03-15T05:06:08.755Z,86
2023-03-15T05:07:07.878Z,86
2023-03-15T05:08:08.366Z,86
2023-03-15T05:09:08.512Z,86
2023-03-15T05:10:08.804Z,86
2023-03-15T05:12:08.106Z,86
2023-03-15T05:13:08.349Z,86
2023-03-15T05:14:08.824Z,86
2023-03-15T05:15:08.309Z,86
2023-03-15T05:16:08.447Z,86
2023-03-15T05:17:08.623Z,86
2023-03-15T05:18:08.870Z,86
2023-03-15T05:19:08.047Z,86
2023-03-15T05:20:08.418Z,86
2023-03-15T05:21:08.810Z,86
2023-03-15T05:22:08.022Z,86
2023-03-15T05:23:08.287Z,86
2023-03-15T05:24:08.746Z,86
2023-03-15T05:25:08.845Z,86
2023-03-15T05:26:07.963Z,86
2023-03-15T05:27:08.122Z,86
2023-03-15T05:28:08.628Z,86
2023-03-15T05:29:08.722Z,86
2023-03-15T05:30:07.782Z,86
2023-03-15T05:31:08.657Z,86
2023-03-15T05:32:09.284Z,86
2023-03-15T05:33:08.118Z,86
2023-03-15T05:35:08.615Z,86
2023-03-15T05:36:08.391Z,86
2023-03-15T05:37:07.995Z,86
2023-03-15T05:38:08.224Z,86
2023-03-15T05:39:08.427Z,86
2023-03-15T05:40:08.508Z,86
2023-03-15T05:41:08.251Z,86
2023-03-15T05:42:08.873Z,86
2023-03-15T05:43:08.083Z,86
2023-03-15T05:44:08.205Z,86
2023-03-15T05:45:08.796Z,86
2023-03-15T05:46:08.255Z,86
2023-03-15T05:47:08.309Z,86
2023-03-15T05:48:08.695Z,86
2023-03-15T05:49:08.726Z,86
2023-03-15T05:51:08.380Z,86
2023-03-15T05:52:08.691Z,86
2023-03-15T05:53:08.632Z,86
2023-03-15T05:54:08.136Z,86
2023-03-15T05:55:08.094Z,86
2023-03-15T05:56:08.684Z,86
2023-03-15T05:57:08.050Z,86
2023-03-15T05:59:08.291Z,86
2023-03-15T06:00:08.653Z,86
2023-03-15T06:01:07.967Z,86
2023-03-15T06:02:08.405Z,86
2023-03-15T06:03:08.601Z,86
2023-03-15T06:04:08.895Z,86
2023-03-15T06:05:07.628Z,86
2023-03-15T06:06:08.089Z,86
2023-03-15T06:07:08.057Z,86
2023-03-15T06:08:08.208Z,86
2023-03-15T06:09:08.778Z,86
2023-03-15T06:10:07.852Z,86
2023-03-15T06:11:08.003Z,86
2023-03-15T06:12:08.159Z,86
2023-03-15T06:13:08.692Z,86
2023-03-15T06:14:07.906Z,86
2023-03-15T06:15:08.204Z,86
2023-03-15T06:16:08.485Z,86
2023-03-15T06:17:08.580Z,86
2023-03-15T06:19:08.245Z,86
2023-03-15T06:20:08.665Z,86
2023-03-15T06:22:08.401Z,86
2023-03-15T06:23:08.469Z,86
2023-03-15T06:24:08.544Z,86
2023-03-15T06:25:07.890Z,86
2023-03-15T06:26:08.201Z,86
2023-03-15T06:27:08.384Z,86
2023-03-15T06:28:08.787Z,86
2023-03-15T06:29:08.850Z,86
2023-03-15T06:30:07.973Z,86
2023-03-15T06:31:08.212Z,86
2023-03-15T06:32:08.706Z,86
2023-03-15T06:33:08.827Z,86
2023-03-15T06:35:08.442Z,86
2023-03-15T06:36:08.999Z,86
2023-03-15T06:37:08.736Z,86
2023-03-15T06:38:08.878Z,86
2023-03-15T06:39:08.490Z,86
2023-03-15T06:40:08.525Z,86
2023-03-15T06:41:08.053Z,86
2023-03-15T06:42:08.309Z,86
2023-03-15T06:43:08.623Z,86
2023-03-15T06:44:07.865Z,86
2023-03-15T06:45:08.195Z,86
2023-03-15T06:46:08.612Z,86
2023-03-15T06:47:08.656Z,86
2023-03-15T06:48:08.426Z,86
2023-03-15T06:49:08.606Z,86
2023-03-15T06:50:07.958Z,86
2023-03-15T06:51:08.338Z,86
2023-03-15T06:52:08.704Z,86
2023-03-15T06:53:07.905Z,86
2023-03-15T06:54:08.007Z,86
2023-03-15T06:55:08.552Z,86
2023-03-15T06:56:07.858Z,86
2023-03-15T06:57:08.114Z,86
2023-03-15T06:58:08.422Z,86
2023-03-15T06:59:08.628Z,86
2023-03-15T07:00:08.130Z,86
2023-03-15T07:01:08.375Z,86
2023-03-15T07:02:08.428Z,86
2023-03-15T07:03:08.767Z,86
2023-03-15T07:05:08.144Z,86
2023-03-15T07:07:08.006Z,86
2023-03-15T07:08:08.165Z,86
2023-03-15T07:09:08.629Z,86
2023-03-15T07:10:08.669Z,86
2023-03-15T07:11:08.320Z,86
2023-03-15T07:12:08.399Z,86
2023-03-15T07:13:08.316Z,86
2023-03-15T07:14:08.574Z,86
2023-03-15T07:15:08.832Z,86
2023-03-15T07:16:08.718Z,86
2023-03-15T07:17:08.499Z,86
2023-03-15T07:18:08.651Z,86
2023-03-15T07:19:07.894Z,86
2023-03-15T07:20:08.234Z,86
2023-03-15T07:21:08.400Z,86
2023-03-15T07:22:08.881Z,86
2023-03-15T07:24:08.118Z,86
2023-03-15T07:25:08.618Z,86
2023-03-15T07:26:08.046Z,86
2023-03-15T07:27:08.219Z,86
2023-03-15T07:28:08.235Z,86
2023-03-15T07:29:08.683Z,85
2023-03-15T07:30:08.080Z,86
2023-03-15T07:31:08.402Z,85
2023-03-15T07:32:08.915Z,85
2023-03-15T07:33:08.567Z,85
2023-03-15T07:34:08.348Z,85
2023-03-15T07:35:08.624Z,85
2023-03-15T07:36:08.154Z,85
2023-03-15T07:37:08.348Z,85
2023-03-15T07:38:08.404Z,85
2023-03-15T07:39:08.042Z,85
2023-03-15T07:40:08.244Z,85
2023-03-15T07:42:08.759Z,85
2023-03-15T07:44:08.117Z,85
2023-03-15T07:45:08.305Z,85
2023-03-15T07:46:07.905Z,85
2023-03-15T07:47:08.236Z,85
2023-03-15T07:48:08.558Z,85
2023-03-15T07:49:08.659Z,85
2023-03-15T07:50:08.084Z,85
2023-03-15T07:51:08.894Z,85
2023-03-15T07:52:08.627Z,85
2023-03-15T07:53:08.067Z,85
2023-03-15T07:54:08.558Z,85
2023-03-15T07:55:08.558Z,85
2023-03-15T07:56:08.573Z,85
2023-03-15T07:57:08.970Z,85
2023-03-15T07:58:08.148Z,85
2023-03-15T07:59:08.313Z,85
2023-03-15T08:00:08.732Z,85
2023-03-15T08:01:08.794Z,85
2023-03-15T08:02:09.768Z,85
2023-03-15T08:03:08.151Z,85
2023-03-15T08:04:08.683Z,85
2023-03-15T08:05:08.665Z,85
2023-03-15T08:06:08.544Z,84
2023-03-15T08:08:08.146Z,84
2023-03-15T08:09:08.669Z,84
2023-03-15T08:10:08.913Z,84
2023-03-15T08:11:08.014Z,84
2023-03-15T08:12:08.424Z,84
2023-03-15T08:13:08.704Z,84
2023-03-15T08:14:08.086Z,84
2023-03-15T08:15:08.149Z,84
2023-03-15T08:16:08.689Z,84
2023-03-15T08:17:07.776Z,84
2023-03-15T08:18:10.580Z,84
2023-03-15T08:19:08.179Z,84
2023-03-15T08:20:08.645Z,84
2023-03-15T08:21:08.844Z,84
2023-03-15T08:22:08.129Z,84
2023-03-15T08:23:08.197Z,84
2023-03-15T08:24:08.478Z,84
2023-03-15T08:25:08.855Z,84
2023-03-15T08:26:08.283Z,83
2023-03-15T08:27:08.734Z,83
2023-03-15T08:28:08.590Z,83
2023-03-15T08:29:07.921Z,83
2023-03-15T08:30:08.556Z,83
2023-03-15T08:31:08.576Z,83
2023-03-15T08:32:08.249Z,83
2023-03-15T08:33:08.597Z,83
2023-03-15T08:34:08.558Z,83
2023-03-15T08:35:08.884Z,83
2023-03-15T08:36:08.295Z,83
2023-03-15T08:37:08.693Z,84
2023-03-15T08:38:08.090Z,84
2023-03-15T08:39:08.429Z,84
2023-03-15T08:40:08.525Z,84
2023-03-15T08:41:08.560Z,84
2023-03-15T08:42:07.896Z,84
2023-03-15T08:43:07.919Z,84
2023-03-15T08:44:08.286Z,84
2023-03-15T08:45:08.570Z,84
2023-03-15T08:46:08.754Z,83
2023-03-15T08:47:08.334Z,83
2023-03-15T08:48:08.648Z,83
2023-03-15T08:49:08.809Z,83
2023-03-15T08:50:08.047Z,84
2023-03-15T08:51:08.302Z,83
2023-03-15T08:52:08.091Z,83
2023-03-15T08:53:08.394Z,83
2023-03-15T08:54:08.602Z,83
2023-03-15T08:55:07.915Z,83
2023-03-15T08:56:08.569Z,82
2023-03-15T08:57:08.606Z,82
2023-03-15T08:58:11.005Z,82
2023-03-15T08:59:08.324Z,82
2023-03-15T09:00:08.434Z,82
2023-03-15T09:02:08.554Z,82
2023-03-15T09:03:08.430Z,82
2023-03-15T09:04:08.015Z,82
2023-03-15T09:05:08.333Z,81
2023-03-15T09:06:08.374Z,81
2023-03-15T09:07:08.529Z,81
2023-03-15T09:08:08.979Z,80
2023-03-15T09:09:08.210Z,80
2023-03-15T09:10:11.580Z,80
2023-03-15T09:11:08.319Z,80
2023-03-15T09:12:08.486Z,80
2023-03-15T09:13:09.056Z,80
2023-03-15T09:14:07.826Z,80
2023-03-15T09:15:10.123Z,79
2023-03-15T09:16:08.057Z,79
2023-03-15T09:17:08.341Z,79
2023-03-15T09:19:08.296Z,79
2023-03-15T09:20:08.540Z,78
2023-03-15T09:21:08.497Z,78
2023-03-15T09:22:41.682Z,78
2023-03-15T09:23:08.870Z,77
2023-03-15T09:24:07.967Z,77
2023-03-15T09:25:08.463Z,77
2023-03-15T09:26:08.743Z,77
2023-03-15T09:27:08.486Z,77
2023-03-15T09:28:08.496Z,77
2023-03-15T09:29:08.065Z,76
2023-03-15T09:30:07.983Z,76
2023-03-15T09:31:08.445Z,76
2023-03-15T09:32:08.845Z,76
2023-03-15T09:33:08.664Z,76
2023-03-15T09:34:08.174Z,75
2023-03-15T09:35:08.617Z,75
2023-03-15T09:36:09.429Z,75
2023-03-15T09:37:08.056Z,75
2023-03-15T09:38:08.404Z,74
2023-03-15T09:39:08.545Z,74
2023-03-15T09:40:08.858Z,74
2023-03-15T09:41:08.295Z,74
2023-03-15T09:42:10.862Z,74
2023-03-15T09:43:09.028Z,73
2023-03-15T09:44:08.010Z,73
2023-03-15T09:45:08.444Z,73
2023-03-15T09:46:09.138Z,73
2023-03-15T09:47:07.963Z,72
2023-03-15T09:48:08.496Z,72
2023-03-15T09:49:08.699Z,72
2023-03-15T09:50:08.259Z,72
2023-03-15T09:51:08.740Z,72
2023-03-15T09:52:08.125Z,72
2023-03-15T09:53:08.082Z,71
2023-03-15T09:55:08.797Z,72
2023-03-15T09:56:08.496Z,72
2023-03-15T09:57:08.588Z,72
2023-03-15T09:58:08.733Z,71
2023-03-15T09:59:08.150Z,71
2023-03-15T10:00:08.294Z,72
2023-03-15T10:01:08.851Z,71
2023-03-15T10:02:08.238Z,71
2023-03-15T10:03:08.189Z,71
2023-03-15T10:04:08.869Z,71
2023-03-15T10:05:08.668Z,71
2023-03-15T10:06:07.885Z,70
2023-03-15T10:07:08.362Z,70
2023-03-15T10:08:08.770Z,70
2023-03-15T10:09:07.858Z,70
2023-03-15T10:10:08.195Z,70
2023-03-15T10:11:08.637Z,69
2023-03-15T10:12:08.688Z,69
2023-03-15T10:13:08.259Z,69
2023-03-15T10:14:08.323Z,68
2023-03-15T10:15:08.767Z,68
2023-03-15T10:16:08.629Z,66
2023-03-15T10:17:08.411Z,66
2023-03-15T10:18:08.751Z,67
2023-03-15T10:19:08.615Z,67
2023-03-15T10:20:08.293Z,67
2023-03-15T10:21:11.334Z,67
2023-03-15T10:22:07.821Z,67
2023-03-15T10:23:08.347Z,67
2023-03-15T10:24:08.379Z,67
2023-03-15T10:25:08.676Z,67
2023-03-15T10:26:08.244Z,67
2023-03-15T10:27:08.407Z,67
2023-03-15T10:28:08.586Z,67
2023-03-15T10:29:08.713Z,67
2023-03-15T10:30:07.917Z,66
2023-03-15T10:31:08.186Z,66
2023-03-15T10:32:08.129Z,66
2023-03-15T10:33:08.315Z,66
2023-03-15T10:34:08.417Z,66
2023-03-15T10:35:08.915Z,66
2023-03-15T10:36:17.710Z,66
2023-03-15T10:37:08.390Z,66
2023-03-15T10:38:08.535Z,65
2023-03-15T10:39:08.945Z,65
2023-03-15T10:40:08.189Z,65
2023-03-15T10:41:08.818Z,65
2023-03-15T10:42:08.045Z,65
2023-03-15T10:43:09.877Z,65
2023-03-15T10:44:08.426Z,65
2023-03-15T10:45:08.698Z,65
2023-03-15T10:46:08.884Z,65
2023-03-15T10:47:26.902Z,64
2023-03-15T10:48:08.293Z,64
2023-03-15T10:49:08.363Z,64
2023-03-15T10:50:08.743Z,64
2023-03-15T10:51:08.727Z,64
2023-03-15T10:53:08.052Z,64
2023-03-15T10:54:08.629Z,64
2023-03-15T10:55:10.923Z,64
2023-03-15T10:56:08.193Z,63
2023-03-15T10:57:08.191Z,63
2023-03-15T10:59:19.106Z,63
2023-03-15T11:00:07.784Z,63
2023-03-15T11:01:08.667Z,63
2023-03-15T11:02:08.774Z,63
2023-03-15T11:03:08.400Z,63
2023-03-15T11:04:08.509Z,63
2023-03-15T11:05:08.793Z,63
2023-03-15T11:06:08.699Z,63
2023-03-15T11:07:08.432Z,63
2023-03-15T11:08:08.689Z,63
2023-03-15T11:09:07.772Z,62
2023-03-15T11:10:08.261Z,62
2023-03-15T11:11:08.507Z,62
2023-03-15T11:12:08.746Z,62
2023-03-15T11:13:07.844Z,62
2023-03-15T11:14:08.523Z,62
2023-03-15T11:15:10.086Z,62
2023-03-15T11:17:08.118Z,61
2023-03-15T11:18:10.583Z,61
2023-03-15T11:19:08.660Z,62
2023-03-15T11:20:08.157Z,61
2023-03-15T11:21:08.120Z,62
2023-03-15T11:22:08.515Z,61
2023-03-15T11:23:08.702Z,61
2023-03-15T11:24:07.832Z,62
2023-03-15T11:25:08.272Z,62
2023-03-15T11:26:08.646Z,62
2023-03-15T11:27:08.250Z,62
2023-03-15T11:28:08.458Z,62
2023-03-15T11:29:07.812Z,62
2023-03-15T11:30:07.835Z,62
2023-03-15T11:31:08.708Z,62
2023-03-15T11:32:07.891Z,62
2023-03-15T11:33:08.096Z,61
2023-03-15T11:34:08.394Z,61
2023-03-15T11:35:08.576Z,61
2023-03-15T11:36:07.917Z,61
2023-03-15T11:37:12.758Z,61
2023-03-15T11:38:17.959Z,61
2023-03-15T11:39:07.965Z,61
2023-03-15T11:40:16.154Z,61
2023-03-15T11:41:08.206Z,60
2023-03-15T11:42:09.414Z,60
2023-03-15T11:43:07.980Z,59
2023-03-15T11:44:08.258Z,59
2023-03-15T11:45:08.724Z,59
2023-03-15T11:46:08.144Z,59
2023-03-15T11:47:08.221Z,58
2023-03-15T11:48:08.454Z,58
2023-03-15T11:49:08.569Z,58
2023-03-15T11:50:07.943Z,58
2023-03-15T11:51:08.279Z,58
2023-03-15T11:52:08.006Z,58
2023-03-15T11:53:08.167Z,58
2023-03-15T11:54:08.334Z,57
2023-03-15T11:55:08.672Z,57
2023-03-15T11:56:07.820Z,55
2023-03-15T11:57:08.110Z,56
2023-03-15T11:58:08.041Z,56
2023-03-15T11:59:08.449Z,56
2023-03-15T12:00:08.047Z,56
2023-03-15T12:01:07.974Z,56
2023-03-15T12:02:08.263Z,56
2023-03-15T12:03:08.503Z,56
2023-03-15T12:04:07.834Z,55
2023-03-15T12:05:20.111Z,55
2023-03-15T12:06:08.363Z,55
2023-03-15T12:07:07.794Z,56
2023-03-15T12:08:08.012Z,55
2023-03-15T12:09:08.132Z,55
2023-03-15T12:10:08.645Z,55
2023-03-15T12:11:08.082Z,55
2023-03-15T12:12:08.446Z,55
2023-03-15T12:13:08.725Z,55
2023-03-15T12:14:08.680Z,56
2023-03-15T12:15:08.269Z,55
2023-03-15T12:16:08.399Z,56
2023-03-15T12:17:08.585Z,56
2023-03-15T12:18:07.924Z,56
2023-03-15T12:19:08.093Z,56
2023-03-15T12:20:08.276Z,56
2023-03-15T12:21:08.044Z,56
2023-03-15T12:22:08.379Z,56
2023-03-15T12:23:08.580Z,56
2023-03-15T12:24:08.760Z,56
2023-03-15T12:25:08.129Z,56
2023-03-15T12:27:07.774Z,56
2023-03-15T12:28:08.122Z,56
2023-03-15T12:29:08.274Z,56
2023-03-15T12:30:08.577Z,56
2023-03-15T12:31:07.898Z,56
2023-03-15T12:32:08.064Z,56
2023-03-15T12:33:08.326Z,56
2023-03-15T12:34:08.602Z,56
2023-03-15T12:35:07.777Z,55
2023-03-15T12:36:07.907Z,56
2023-03-15T12:37:08.467Z,55
2023-03-15T12:38:08.691Z,56
2023-03-15T12:39:08.039Z,56
2023-03-15T12:40:08.339Z,56
2023-03-15T12:41:07.722Z,56
2023-03-15T12:42:08.460Z,56
2023-03-15T12:43:08.645Z,56
2023-03-15T12:44:07.813Z,56
2023-03-15T12:46:08.673Z,56
2023-03-15T12:47:08.677Z,56
2023-03-15T12:48:07.881Z,57
2023-03-15T12:49:07.987Z,57
2023-03-15T12:50:08.142Z,57
2023-03-15T12:52:08.574Z,57
2023-03-15T12:53:07.773Z,56
2023-03-15T12:54:08.364Z,56
2023-03-15T12:55:08.453Z,56
2023-03-15T12:56:15.003Z,56
2023-03-15T12:57:07.996Z,56
2023-03-15T12:58:08.339Z,56
2023-03-15T12:59:08.533Z,56
2023-03-15T13:00:08.788Z,56
2023-03-15T13:01:08.268Z,56
2023-03-15T13:02:08.540Z,56
2023-03-15T13:03:09.028Z,56
2023-03-15T13:04:08.045Z,55
2023-03-15T13:05:08.302Z,56
2023-03-15T13:06:10.647Z,56
2023-03-15T13:07:08.689Z,55
2023-03-15T13:08:07.844Z,56
2023-03-15T13:09:08.216Z,56
2023-03-15T13:11:08.086Z,56
2023-03-15T13:12:08.048Z,56
2023-03-15T13:13:08.143Z,56
2023-03-15T13:15:08.965Z,57
2023-03-15T13:16:08.278Z,57
2023-03-15T13:18:08.476Z,57
2023-03-15T13:19:08.514Z,57
2023-03-15T13:20:08.703Z,57
2023-03-15T13:21:08.007Z,57
2023-03-15T13:22:08.227Z,57
2023-03-15T13:23:08.134Z,57
2023-03-15T13:24:08.687Z,56
2023-03-15T13:25:08.734Z,56
2023-03-15T13:26:08.133Z,57
2023-03-15T13:27:08.494Z,57
2023-03-15T13:28:08.815Z,57
2023-03-15T13:29:08.029Z,56
2023-03-15T13:30:08.638Z,56
2023-03-15T13:31:08.205Z,56
2023-03-15T13:32:08.020Z,56
2023-03-15T13:33:08.488Z,56
2023-03-15T13:34:08.434Z,56
2023-03-15T13:35:07.972Z,56
2023-03-15T13:36:08.390Z,56
2023-03-15T13:39:08.012Z,56
2023-03-15T13:41:08.787Z,55
2023-03-15T13:42:08.311Z,55
2023-03-15T13:43:08.317Z,56
2023-03-15T13:44:08.568Z,56
2023-03-15T13:45:08.747Z,56
2023-03-15T13:46:08.406Z,55
2023-03-15T13:47:08.277Z,55
2023-03-15T13:48:08.364Z,56
2023-03-15T13:50:08.364Z,56
2023-03-15T13:51:08.293Z,55
2023-03-15T13:52:08.968Z,56
2023-03-15T13:53:08.180Z,56
2023-03-15T13:54:08.227Z,56
2023-03-15T13:55:08.725Z,56
2023-03-15T13:56:08.095Z,56
2023-03-15T13:57:08.224Z,56
2023-03-15T13:58:08.617Z,56
2023-03-15T13:59:07.795Z,56
2023-03-15T14:01:08.422Z,57
2023-03-15T14:02:09.359Z,57
2023-03-15T14:03:09.146Z,56
2023-03-15T14:05:08.426Z,57
2023-03-15T14:07:08.068Z,57
2023-03-15T14:08:08.383Z,57
2023-03-15T14:09:07.876Z,57
2023-03-15T14:10:08.330Z,57
2023-03-15T14:11:08.108Z,57
2023-03-15T14:12:08.255Z,57
2023-03-15T14:13:08.533Z,57
2023-03-15T14:14:09.068Z,57
2023-03-15T14:15:08.021Z,57
2023-03-15T14:16:08.817Z,58
2023-03-15T14:17:12.473Z,58
2023-03-15T14:18:08.306Z,58
2023-03-15T14:19:08.438Z,58
2023-03-15T14:20:08.073Z,58
2023-03-15T14:21:08.847Z,58
2023-03-15T14:22:08.555Z,58
2023-03-15T14:23:07.553Z,58
2023-03-15T14:24:08.343Z,58
2023-03-15T14:25:08.589Z,58
2023-03-15T14:26:08.899Z,59
2023-03-15T14:27:08.057Z,59
2023-03-15T14:29:09.198Z,59
2023-03-15T14:30:08.829Z,59
2023-03-15T14:31:08.019Z,59
2023-03-15T14:32:08.053Z,59
2023-03-15T14:33:09.055Z,59
2023-03-15T14:34:08.791Z,59
2023-03-15T14:35:08.028Z,59
2023-03-15T14:37:08.620Z,59
2023-03-15T14:39:08.314Z,59
2023-03-15T14:40:08.588Z,59
2023-03-15T14:41:07.984Z,60
2023-03-15T14:42:08.479Z,60
2023-03-15T14:43:08.629Z,60
2023-03-15T14:44:08.949Z,60
2023-03-15T14:45:08.276Z,60
2023-03-15T14:46:11.135Z,60
2023-03-15T14:47:08.840Z,61
2023-03-15T14:48:07.991Z,61
2023-03-15T14:50:08.871Z,61
2023-03-15T14:51:08.165Z,61
2023-03-15T14:52:08.222Z,61
2023-03-15T14:53:08.676Z,61
2023-03-15T14:54:08.909Z,61
2023-03-15T14:55:08.229Z,61
2023-03-15T14:56:08.556Z,61
2023-03-15T14:57:07.788Z,61
2023-03-15T14:58:08.288Z,62
2023-03-15T14:59:09.708Z,62
2023-03-15T15:00:08.769Z,62
2023-03-15T15:01:08.361Z,62
2023-03-15T15:02:08.697Z,62
2023-03-15T15:03:08.594Z,62
2023-03-15T15:04:08.203Z,62
2023-03-15T15:05:08.411Z,62
2023-03-15T15:06:08.954Z,62
2023-03-15T15:07:08.117Z,63
2023-03-15T15:08:08.321Z,63
2023-03-15T15:09:08.599Z,63
2023-03-15T15:10:09.322Z,63
2023-03-15T15:11:08.649Z,63